createdAt,value
2023-02-13T00:02:25.204Z,94.27
2023-02-13T00:04:51.931Z,93.98
2023-02-13T00:07:18.516Z,93.74
2023-02-13T00:09:45.017Z,93.46
2023-02-13T00:12:11.518Z,93.45
2023-02-13T00:14:39.125Z,93.15
2023-02-13T00:17:06.601Z,92.96
2023-02-13T00:19:33.433Z,92.65
2023-02-13T00:21:59.922Z,92.68
2023-02-13T00:24:26.666Z,93.18
2023-02-13T00:26:53.157Z,93.78
2023-02-13T00:29:19.811Z,93.94
2023-02-13T00:31:46.491Z,94.09
2023-02-13T00:34:13.133Z,94.13
2023-02-13T00:36:39.731Z,94.43
2023-02-13T00:39:06.240Z,94.42
2023-02-13T00:41:32.814Z,94.47
2023-02-13T00:43:59.373Z,94.96
2023-02-13T00:46:25.946Z,94.67
2023-02-13T00:48:52.470Z,95.05
2023-02-13T00:51:18.971Z,95.21
2023-02-13T00:53:45.442Z,94.89
2023-02-13T00:56:12.022Z,95.06
2023-02-13T00:58:39.226Z,95.09
2023-02-13T01:01:05.948Z,94.84
2023-02-13T01:03:32.508Z,94.82
2023-02-13T01:05:59.234Z,95.03
2023-02-13T01:08:28.253Z,95.40
2023-02-13T01:10:55.688Z,95.40
2023-02-13T01:13:22.467Z,95.39
2023-02-13T01:15:49.709Z,95.62
2023-02-13T01:18:19.064Z,95.45
2023-02-13T01:20:46.500Z,95.78
2023-02-13T01:23:13.135Z,96.15
2023-02-13T01:25:41.608Z,96.42
2023-02-13T01:28:08.338Z,96.68
2023-02-13T01:30:34.998Z,96.45
2023-02-13T01:33:01.680Z,96.51
2023-02-13T01:35:28.222Z,96.55
2023-02-13T01:37:54.975Z,96.48
2023-02-13T01:40:21.657Z,96.92
2023-02-13T01:42:48.196Z,96.93
2023-02-13T01:45:27.482Z,97.08
2023-02-13T01:47:56.722Z,96.97
2023-02-13T01:50:29.070Z,96.87
2023-02-13T01:53:09.552Z,97.05
2023-02-13T01:55:43.701Z,97.12
2023-02-13T01:58:12.814Z,96.85
2023-02-13T02:00:39.901Z,96.84
2023-02-13T02:03:13.762Z,97.08
2023-02-13T02:05:40.345Z,97.06
2023-02-13T02:08:10.510Z,96.94
2023-02-13T02:10:37.497Z,97.12
2023-02-13T02:13:18.603Z,97.22
2023-02-13T02:15:45.919Z,97.14
2023-02-13T02:18:17.561Z,96.67
2023-02-13T02:21:05.462Z,96.57
2023-02-13T02:23:50.564Z,96.50
2023-02-13T02:26:40.773Z,96.56
2023-02-13T02:29:16.257Z,96.60
2023-02-13T02:32:08.327Z,96.34
2023-02-13T02:34:45.509Z,96.51
2023-02-13T02:37:29.505Z,96.82
2023-02-13T02:40:51.518Z,96.78
2023-02-13T02:43:41.126Z,97.15
2023-02-13T02:46:24.419Z,97.40
2023-02-13T02:49:16.264Z,97.24
2023-02-13T02:52:20.065Z,97.53
2023-02-13T02:55:06.687Z,97.53
2023-02-13T02:57:57.373Z,97.82
2023-02-13T03:00:44.580Z,97.82
2023-02-13T03:03:38.413Z,97.87
2023-02-13T03:06:14.038Z,97.88
2023-02-13T03:09:02.343Z,98.34
2023-02-13T03:11:47.511Z,98.38
2023-02-13T03:14:17.938Z,98.53
2023-02-13T03:17:03.004Z,98.67
2023-02-13T03:20:20.841Z,98.12
2023-02-13T03:22:50.340Z,98.03
2023-02-13T03:25:51.934Z,98.08
2023-02-13T03:28:46.621Z,97.96
2023-02-13T03:31:27.486Z,97.71
2023-02-13T03:34:10.912Z,97.87
2023-02-13T03:37:07.194Z,97.81
2023-02-13T03:39:43.649Z,97.66
2023-02-13T03:42:23.718Z,97.53
2023-02-13T03:45:14.576Z,97.63
2023-02-13T03:47:42.600Z,97.83
2023-02-13T03:50:10.087Z,98.22
2023-02-13T03:52:46.135Z,98.29
2023-02-13T03:55:34.162Z,98.09
2023-02-13T03:58:24.296Z,98.03
2023-02-13T04:00:53.141Z,98.30
2023-02-13T04:03:26.432Z,98.34
2023-02-13T04:06:09.724Z,98.35
2023-02-13T04:08:36.288Z,98.26
2023-02-13T04:11:15.657Z,98.00
2023-02-13T04:13:59.828Z,98.23
2023-02-13T04:16:36.475Z,97.97
2023-02-13T04:19:03.804Z,98.06
2023-02-13T04:21:38.851Z,98.09
2023-02-13T04:24:05.579Z,98.20
2023-02-13T04:26:40.633Z,97.95
2023-02-13T04:29:10.168Z,98.18
2023-02-13T04:31:37.903Z,98.01
2023-02-13T04:34:04.414Z,98.07
2023-02-13T04:36:30.957Z,97.87
2023-02-13T04:38:58.450Z,97.71
2023-02-13T04:41:25.054Z,97.86
2023-02-13T04:43:52.494Z,97.91
2023-02-13T04:46:19.565Z,97.76
2023-02-13T04:48:46.057Z,97.22
2023-02-13T04:51:12.738Z,97.45
2023-02-13T04:53:39.294Z,97.22
2023-02-13T04:56:05.970Z,97.18
2023-02-13T04:58:32.468Z,97.33
2023-02-13T05:00:59.338Z,97.57
2023-02-13T05:03:26.039Z,97.83
2023-02-13T05:05:52.511Z,98.25
2023-02-13T05:08:18.988Z,98.19
2023-02-13T05:10:45.455Z,98.30
2023-02-13T05:13:12.300Z,98.45
2023-02-13T05:15:38.922Z,98.85
2023-02-13T05:18:05.652Z,98.90
2023-02-13T05:20:32.206Z,98.84
2023-02-13T05:23:28.464Z,98.99
2023-02-13T05:25:54.959Z,98.49
2023-02-13T05:28:40.139Z,98.78
2023-02-13T05:31:07.831Z,98.30
2023-02-13T05:33:34.379Z,98.31
2023-02-13T05:36:00.894Z,98.20
2023-02-13T05:38:27.558Z,98.04
2023-02-13T05:40:54.090Z,97.57
2023-02-13T05:43:20.852Z,97.29
2023-02-13T05:45:48.429Z,96.96
2023-02-13T05:48:14.932Z,96.80
2023-02-13T05:50:41.395Z,96.54
2023-02-13T05:53:07.965Z,96.16
2023-02-13T05:55:34.481Z,96.01
2023-02-13T05:58:00.964Z,95.81
2023-02-13T06:00:27.572Z,95.86
2023-02-13T06:02:54.418Z,95.67
2023-02-13T06:05:20.990Z,95.46
2023-02-13T06:07:47.595Z,94.97
2023-02-13T06:10:14.075Z,94.81
2023-02-13T06:12:40.605Z,94.77
2023-02-13T06:15:07.658Z,94.64
2023-02-13T06:17:34.242Z,94.67
2023-02-13T06:20:00.820Z,94.69
2023-02-13T06:22:27.385Z,94.87
2023-02-13T06:24:53.957Z,94.99
2023-02-13T06:27:20.529Z,94.92
2023-02-13T06:29:48.315Z,94.74
2023-02-13T06:32:14.868Z,95.09
2023-02-13T06:34:41.423Z,95.13
2023-02-13T06:37:07.931Z,95.22
2023-02-13T06:39:34.715Z,95.08
2023-02-13T06:42:01.210Z,95.49
2023-02-13T06:44:27.718Z,95.12
2023-02-13T06:46:54.179Z,95.70
2023-02-13T06:49:20.702Z,95.52
2023-02-13T06:51:47.220Z,95.02
2023-02-13T06:54:13.910Z,95.09
2023-02-13T06:56:42.461Z,95.20
2023-02-13T06:59:09.333Z,94.93
2023-02-13T07:01:36.034Z,94.93
2023-02-13T07:04:02.629Z,94.76
2023-02-13T07:06:29.184Z,94.60
2023-02-13T07:08:56.126Z,94.88
2023-02-13T07:11:24.678Z,94.51
2023-02-13T07:13:51.330Z,94.38
2023-02-13T07:16:17.910Z,94.19
2023-02-13T07:18:44.583Z,93.83
2023-02-13T07:21:11.493Z,93.98
2023-02-13T07:23:38.292Z,93.70
2023-02-13T07:26:05.981Z,93.78
2023-02-13T07:28:32.838Z,93.71
2023-02-13T07:31:04.471Z,93.38
2023-02-13T07:33:31.255Z,93.09
2023-02-13T07:35:57.927Z,92.87
2023-02-13T07:38:24.486Z,93.02
2023-02-13T07:40:51.228Z,92.99
2023-02-13T07:43:17.900Z,92.94
2023-02-13T07:45:44.546Z,92.71
2023-02-13T07:48:11.152Z,92.77
2023-02-13T07:50:37.707Z,92.92
2023-02-13T07:53:04.273Z,93.00
2023-02-13T07:55:32.830Z,92.91
2023-02-13T07:58:00.500Z,93.05
2023-02-13T08:00:27.169Z,93.21
2023-02-13T08:02:53.720Z,93.28
2023-02-13T08:05:20.239Z,92.97
2023-02-13T08:07:46.858Z,92.97
2023-02-13T08:10:32.632Z,92.72
2023-02-13T08:12:59.390Z,93.04
2023-02-13T08:15:26.237Z,92.84
2023-02-13T08:17:52.787Z,92.91
2023-02-13T08:20:19.577Z,92.58
2023-02-13T08:22:46.122Z,92.67
2023-02-13T08:25:13.274Z,92.71
2023-02-13T08:27:39.790Z,92.51
2023-02-13T08:30:07.086Z,92.39
2023-02-13T08:32:44.826Z,92.42
2023-02-13T08:35:14.992Z,91.98
2023-02-13T08:37:41.485Z,92.09
2023-02-13T08:40:11.388Z,92.13
2023-02-13T08:42:38.456Z,91.77
2023-02-13T08:45:05.963Z,92.04
2023-02-13T08:47:32.722Z,92.02
2023-02-13T08:49:59.375Z,91.82
2023-02-13T08:52:25.978Z,92.00
2023-02-13T08:54:52.593Z,91.62
2023-02-13T08:57:19.144Z,91.90
2023-02-13T08:59:58.122Z,92.07
2023-02-13T09:02:24.704Z,91.81
2023-02-13T09:04:51.288Z,91.52
2023-02-13T09:07:17.821Z,91.52
2023-02-13T09:09:44.367Z,91.52
2023-02-13T09:12:10.915Z,91.66
2023-02-13T09:14:44.757Z,91.43
2023-02-13T09:17:11.340Z,91.75
2023-02-13T09:19:38.155Z,91.60
2023-02-13T09:22:04.712Z,91.47
2023-02-13T09:24:31.202Z,91.63
2023-02-13T09:26:57.911Z,91.44
2023-02-13T09:29:24.472Z,91.22
2023-02-13T09:31:51.486Z,91.20
2023-02-13T09:34:19.048Z,91.21
2023-02-13T09:36:45.613Z,91.26
2023-02-13T09:39:12.136Z,91.24
2023-02-13T09:41:41.260Z,91.11
2023-02-13T09:44:35.945Z,90.80
2023-02-13T09:47:37.769Z,90.94
2023-02-13T09:50:22.549Z,90.53
2023-02-13T09:52:51.904Z,90.67
2023-02-13T09:55:21.540Z,90.55
2023-02-13T09:58:07.478Z,90.11
2023-02-13T10:00:46.686Z,90.30
2023-02-13T10:03:16.323Z,89.92
2023-02-13T10:05:48.204Z,89.94
2023-02-13T10:08:39.170Z,89.45
2023-02-13T10:11:36.646Z,89.28
2023-02-13T10:14:17.620Z,89.53
2023-02-13T10:17:01.312Z,89.27
2023-02-13T10:19:47.263Z,89.45
2023-02-13T10:22:17.350Z,89.07
2023-02-13T10:24:50.732Z,88.88
2023-02-13T10:27:22.252Z,89.02
2023-02-13T10:30:12.607Z,89.05
2023-02-13T10:33:18.405Z,89.01
2023-02-13T10:35:48.842Z,88.81
2023-02-13T10:38:17.881Z,89.17
2023-02-13T10:41:25.457Z,89.16
2023-02-13T10:44:19.959Z,89.13
2023-02-13T10:47:25.946Z,89.02
2023-02-13T10:50:27.299Z,88.76
2023-02-13T10:53:22.415Z,88.64
2023-02-13T10:56:01.529Z,88.73
2023-02-13T10:58:43.096Z,88.57
2023-02-13T11:01:31.338Z,88.31
2023-02-13T11:04:12.620Z,88.48
2023-02-13T11:07:00.139Z,88.10
2023-02-13T11:09:27.500Z,88.10
2023-02-13T11:11:54.404Z,87.91
2023-02-13T11:14:23.560Z,87.35
2023-02-13T11:16:56.456Z,86.83
2023-02-13T11:19:30.911Z,86.39
2023-02-13T11:22:36.421Z,86.17
2023-02-13T11:25:22.576Z,85.23
2023-02-13T11:27:54.282Z,85.43
2023-02-13T11:30:23.948Z,85.02
2023-02-13T11:33:04.030Z,85.17
2023-02-13T11:35:36.732Z,84.98
2023-02-13T11:38:24.206Z,84.85
2023-02-13T11:41:06.822Z,85.03
2023-02-13T11:43:44.592Z,84.53
2023-02-13T11:46:19.785Z,84.23
2023-02-13T11:48:56.898Z,84.09
2023-02-13T11:51:38.704Z,84.38
2023-02-13T11:54:05.605Z,84.09
2023-02-13T11:57:04.117Z,83.79
2023-02-13T11:59:34.283Z,83.35
2023-02-13T12:02:21.955Z,82.98
2023-02-13T12:05:20.441Z,82.96
2023-02-13T12:07:47.401Z,83.08
2023-02-13T12:10:30.008Z,83.34
2023-02-13T12:12:59.444Z,83.76
2023-02-13T12:15:28.723Z,83.62
2023-02-13T12:18:29.741Z,83.62
2023-02-13T12:21:02.149Z,83.37
2023-02-13T12:23:45.601Z,83.66
2023-02-13T12:26:26.878Z,83.76
2023-02-13T12:29:09.239Z,83.61
2023-02-13T12:31:55.589Z,83.21
2023-02-13T12:34:52.332Z,83.47
2023-02-13T12:37:45.503Z,83.16
2023-02-13T12:40:24.686Z,82.86
2023-02-13T12:43:04.173Z,82.94
2023-02-13T12:45:58.273Z,82.44
2023-02-13T12:48:31.111Z,82.06
2023-02-13T12:51:19.334Z,81.89
2023-02-13T12:53:56.751Z,81.77
2023-02-13T12:56:33.325Z,81.46
2023-02-13T12:59:21.508Z,81.13
2023-02-13T13:02:22.276Z,81.09
2023-02-13T13:05:17.580Z,81.41
2023-02-13T13:07:48.403Z,81.49
2023-02-13T13:10:32.694Z,81.32
2023-02-13T13:13:17.874Z,81.33
2023-02-13T13:15:57.103Z,81.08
2023-02-13T13:18:36.252Z,80.92
2023-02-13T13:21:37.050Z,80.68
2023-02-13T13:24:27.155Z,80.45
2023-02-13T13:26:57.363Z,80.27
2023-02-13T13:29:28.032Z,80.51
2023-02-13T13:31:58.665Z,80.38
2023-02-13T13:34:26.799Z,79.92
2023-02-13T13:37:05.372Z,79.51
2023-02-13T13:39:47.851Z,78.91
2023-02-13T13:42:19.809Z,78.50
2023-02-13T13:45:22.716Z,78.55
2023-02-13T13:47:57.926Z,78.14
2023-02-13T13:50:26.723Z,78.06
2023-02-13T13:53:11.964Z,78.43
2023-02-13T13:55:50.561Z,78.31
2023-02-13T13:58:33.936Z,78.16
2023-02-13T14:01:30.384Z,77.87
2023-02-13T14:03:58.998Z,77.62
2023-02-13T14:06:48.587Z,77.56
2023-02-13T14:09:41.806Z,77.65
2023-02-13T14:12:34.269Z,77.76
2023-02-13T14:15:00.924Z,77.44
2023-02-13T14:17:45.922Z,77.56
2023-02-13T14:20:26.503Z,76.48
2023-02-13T14:22:53.211Z,74.78
2023-02-13T14:25:25.351Z,74.84
2023-02-13T14:28:02.960Z,75.04
2023-02-13T14:30:36.019Z,75.08
2023-02-13T14:33:22.873Z,75.36
2023-02-13T14:36:00.356Z,73.40
2023-02-13T14:38:27.928Z,70.55
2023-02-13T14:40:55.325Z,68.64
2023-02-13T14:43:23.346Z,68.59
2023-02-13T14:45:55.964Z,68.85
2023-02-13T14:48:29.578Z,69.00
2023-02-13T14:50:57.710Z,68.03
2023-02-13T14:53:29.031Z,68.87
2023-02-13T14:56:25.139Z,68.76
2023-02-13T14:58:51.580Z,68.67
2023-02-13T15:01:29.578Z,69.20
2023-02-13T15:04:32.424Z,69.07
2023-02-13T15:07:02.403Z,68.94
2023-02-13T15:09:38.893Z,69.42
2023-02-13T15:12:25.344Z,69.62
2023-02-13T15:14:51.906Z,70.17
2023-02-13T15:17:21.123Z,70.30
2023-02-13T15:19:51.771Z,70.41
2023-02-13T15:22:22.531Z,70.18
2023-02-13T15:24:50.118Z,70.64
2023-02-13T15:27:34.375Z,70.60
2023-02-13T15:30:16.207Z,70.91
2023-02-13T15:32:42.793Z,70.89
2023-02-13T15:35:33.035Z,70.40
2023-02-13T15:38:00.538Z,70.42
2023-02-13T15:40:29.996Z,70.29
2023-02-13T15:42:57.675Z,70.10
2023-02-13T15:45:26.742Z,70.15
2023-02-13T15:47:53.637Z,70.32
2023-02-13T15:50:32.059Z,70.42
2023-02-13T15:53:01.060Z,70.24
2023-02-13T15:55:30.151Z,70.38
2023-02-13T15:57:58.754Z,70.43
2023-02-13T16:00:28.741Z,70.06
2023-02-13T16:02:57.537Z,70.21
2023-02-13T16:05:39.519Z,70.48
2023-02-13T16:08:30.214Z,70.35
2023-02-13T16:11:15.460Z,70.53
2023-02-13T16:14:11.109Z,70.16
2023-02-13T16:16:49.816Z,69.78
2023-02-13T16:19:29.947Z,69.64
2023-02-13T16:21:58.999Z,69.34
2023-02-13T16:24:26.684Z,69.13
2023-02-13T16:26:53.797Z,69.33
2023-02-13T16:29:22.937Z,69.46
2023-02-13T16:31:50.577Z,68.72
2023-02-13T16:34:29.246Z,68.55
2023-02-13T16:36:57.292Z,68.70
2023-02-13T16:39:29.117Z,68.72
2023-02-13T16:41:57.311Z,68.91
2023-02-13T16:44:24.869Z,68.94
2023-02-13T16:46:54.188Z,68.58
2023-02-13T16:49:22.846Z,68.93
2023-02-13T16:51:59.025Z,69.11
2023-02-13T16:54:29.701Z,69.52
2023-02-13T16:56:59.396Z,70.04
2023-02-13T16:59:28.946Z,70.46
2023-02-13T17:02:14.469Z,70.49
2023-02-13T17:04:57.215Z,70.69
2023-02-13T17:07:28.737Z,71.05
2023-02-13T17:10:04.657Z,71.07
2023-02-13T17:12:35.964Z,71.21
2023-02-13T17:15:02.750Z,71.28
2023-02-13T17:17:31.700Z,71.19
2023-02-13T17:20:02.354Z,71.40
2023-02-13T17:22:36.423Z,71.25
2023-02-13T17:25:11.563Z,71.08
2023-02-13T17:27:39.244Z,71.21
2023-02-13T17:30:06.520Z,71.20
2023-02-13T17:32:34.147Z,71.04
2023-02-13T17:35:01.684Z,70.85
2023-02-13T17:37:30.136Z,70.35
2023-02-13T17:39:58.927Z,70.25
2023-02-13T17:42:28.271Z,70.28
2023-02-13T17:44:58.700Z,69.31
2023-02-13T17:47:25.908Z,68.84
2023-02-13T17:49:59.173Z,69.00
2023-02-13T17:52:31.513Z,69.08
2023-02-13T17:54:58.103Z,68.96
2023-02-13T17:57:24.783Z,69.22
2023-02-13T17:59:51.322Z,69.55
2023-02-13T18:02:20.814Z,69.42
2023-02-13T18:04:48.452Z,69.29
2023-02-13T18:07:17.880Z,69.75
2023-02-13T18:09:44.765Z,69.91
2023-02-13T18:12:23.025Z,70.41
2023-02-13T18:14:50.394Z,70.23
2023-02-13T18:17:17.663Z,70.05
2023-02-13T18:19:44.743Z,69.70
2023-02-13T18:22:19.483Z,69.65
2023-02-13T18:24:46.077Z,69.82
2023-02-13T18:27:12.782Z,69.87
2023-02-13T18:29:39.652Z,70.26
2023-02-13T18:32:10.200Z,70.23
2023-02-13T18:34:38.346Z,70.09
2023-02-13T18:37:07.011Z,69.88
2023-02-13T18:39:33.921Z,69.81
2023-02-13T18:42:00.532Z,69.75
2023-02-13T18:44:28.850Z,69.74
2023-02-13T18:46:56.025Z,70.11
2023-02-13T18:49:22.881Z,70.28
2023-02-13T18:51:49.701Z,70.86
2023-02-13T18:54:18.035Z,71.46
2023-02-13T18:56:45.715Z,71.67
2023-02-13T18:59:12.394Z,71.79
2023-02-13T19:01:39.495Z,71.47
2023-02-13T19:04:06.665Z,71.52
2023-02-13T19:06:35.086Z,71.02
2023-02-13T19:09:01.803Z,71.01
2023-02-13T19:11:28.542Z,71.45
2023-02-13T19:13:56.850Z,71.37
2023-02-13T19:16:24.526Z,71.64
2023-02-13T19:18:57.312Z,71.35
2023-02-13T19:21:29.933Z,71.70
2023-02-13T19:23:56.878Z,71.44
2023-02-13T19:26:25.669Z,71.22
2023-02-13T19:28:52.730Z,71.40
2023-02-13T19:31:25.495Z,71.78
2023-02-13T19:33:52.539Z,71.95
2023-02-13T19:36:22.795Z,71.86
2023-02-13T19:38:54.614Z,72.05
2023-02-13T19:41:22.715Z,72.36
2023-02-13T19:43:53.589Z,72.31
2023-02-13T19:46:23.184Z,72.42
2023-02-13T19:48:50.463Z,72.19
2023-02-13T19:51:20.422Z,72.62
2023-02-13T19:53:48.326Z,72.92
2023-02-13T19:56:15.009Z,72.78
2023-02-13T19:58:42.652Z,72.85
2023-02-13T20:01:18.039Z,73.38
2023-02-13T20:03:44.577Z,73.35
2023-02-13T20:06:17.144Z,73.21
2023-02-13T20:08:44.799Z,73.16
2023-02-13T20:11:12.811Z,73.39
2023-02-13T20:13:39.775Z,73.17
2023-02-13T20:16:07.957Z,73.59
2023-02-13T20:18:35.577Z,73.50
2023-02-13T20:21:10.244Z,73.81
2023-02-13T20:23:37.336Z,74.00
2023-02-13T20:26:05.398Z,74.25
2023-02-13T20:28:32.206Z,74.66
2023-02-13T20:30:59.344Z,74.74
2023-02-13T20:33:26.924Z,75.37
2023-02-13T20:35:53.438Z,75.65
2023-02-13T20:38:19.999Z,75.36
2023-02-13T20:40:47.540Z,75.66
2023-02-13T20:43:14.257Z,75.98
2023-02-13T20:45:40.774Z,76.36
2023-02-13T20:48:07.482Z,76.35
2023-02-13T20:50:34.070Z,76.35
2023-02-13T20:53:00.796Z,76.65
2023-02-13T20:55:27.433Z,76.77
2023-02-13T20:57:54.293Z,77.17
2023-02-13T21:00:21.180Z,77.38
2023-02-13T21:02:47.810Z,77.53
2023-02-13T21:05:14.427Z,77.63
2023-02-13T21:07:41.040Z,77.81
2023-02-13T21:10:07.905Z,77.77
2023-02-13T21:12:35.032Z,77.64
2023-02-13T21:15:01.739Z,77.67
2023-02-13T21:17:28.238Z,77.52
2023-02-13T21:19:54.906Z,77.34
2023-02-13T21:22:21.573Z,77.63
2023-02-13T21:24:49.821Z,77.78
2023-02-13T21:27:16.371Z,77.92
2023-02-13T21:29:42.979Z,78.32
2023-02-13T21:32:09.847Z,77.98
2023-02-13T21:34:36.535Z,78.30
2023-02-13T21:37:03.142Z,78.42
2023-02-13T21:39:29.813Z,78.31
2023-02-13T21:41:56.509Z,78.52
2023-02-13T21:44:23.097Z,78.35
2023-02-13T21:46:50.569Z,78.39
2023-02-13T21:49:18.862Z,78.35
2023-02-13T21:51:45.421Z,78.09
2023-02-13T21:54:12.307Z,78.47
2023-02-13T21:56:41.309Z,78.62
2023-02-13T21:59:07.972Z,78.69
2023-02-13T22:01:36.870Z,78.71
2023-02-13T22:04:07.985Z,78.83
2023-02-13T22:06:36.836Z,79.00
2023-02-13T22:09:07.838Z,78.46
2023-02-13T22:11:35.705Z,78.39
2023-02-13T22:14:04.189Z,78.52
2023-02-13T22:16:32.424Z,78.32
2023-02-13T22:19:00.105Z,78.65
2023-02-13T22:21:28.824Z,78.52
2023-02-13T22:23:55.872Z,78.78
2023-02-13T22:26:34.350Z,78.92
2023-02-13T22:29:06.576Z,78.68
2023-02-13T22:31:33.743Z,78.49
2023-02-13T22:34:05.024Z,78.94
2023-02-13T22:36:40.494Z,78.69
2023-02-13T22:39:08.812Z,79.06
2023-02-13T22:41:35.691Z,79.29
2023-02-13T22:44:02.547Z,79.28
2023-02-13T22:46:31.366Z,79.20
2023-02-13T22:49:00.830Z,79.26
2023-02-13T22:51:31.323Z,79.00
2023-02-13T22:53:58.727Z,79.08
2023-02-13T22:56:26.887Z,78.94
2023-02-13T22:58:53.530Z,79.07
2023-02-13T23:01:30.553Z,79.34
2023-02-13T23:03:57.603Z,79.43
2023-02-13T23:06:25.231Z,79.19
2023-02-13T23:08:54.724Z,79.10
2023-02-13T23:11:44.374Z,78.91
2023-02-13T23:14:11.480Z,78.90
2023-02-13T23:16:57.644Z,79.12
2023-02-13T23:19:25.559Z,79.36
2023-02-13T23:21:52.052Z,78.97
2023-02-13T23:24:18.650Z,78.78
2023-02-13T23:26:45.219Z,78.81
2023-02-13T23:29:11.958Z,79.26
2023-02-13T23:31:38.495Z,79.22
2023-02-13T23:34:05.272Z,79.49
2023-02-13T23:36:31.860Z,79.60
2023-02-13T23:38:58.426Z,79.77
2023-02-13T23:41:25.128Z,79.95
2023-02-13T23:43:51.798Z,79.95
2023-02-13T23:46:18.432Z,80.55
2023-02-13T23:48:46.206Z,80.68
2023-02-13T23:51:12.782Z,80.52
2023-02-13T23:53:39.434Z,80.86
2023-02-13T23:56:06.576Z,80.63
2023-02-13T23:58:33.139Z,80.80
